Time;durP1;ratioP1;P1;durP2;ratioP2;P2;SDS_P1;SDS_P2;PMS_P1;PMS_P2;Temp;Humidity;BMP_temperature;BMP_pressure;BME280_temperature;BME280_humidity;BME280_pressure;Samples;Min_cycle;Max_cycle;Signal;HPM_P1;HPM_P2
2022/03/06 00:00:11;;;;;;;68.32;40.45;;;;;;;-0.84;100.00;99604.44;2081392;28;20772;-75
2022/03/06 00:01:17;;;;;;;67.65;41.15;;;;;;;-0.82;100.00;99607.63;2081935;28;20654;-75
2022/03/06 00:02:19;;;;;;;68.65;40.00;;;;;;;-0.84;100.00;99607.06;2082238;28;20199;-75
2022/03/06 00:03:23;;;;;;;73.95;42.03;;;;;;;-0.84;100.00;99614.09;2082139;28;20221;-77
2022/03/06 00:04:24;;;;;;;72.30;40.78;;;;;;;-0.85;100.00;99615.94;2081568;28;20204;-75
2022/03/06 00:05:30;;;;;;;71.68;41.92;;;;;;;-0.87;100.00;99605.66;2081579;28;20188;-75
2022/03/06 00:06:37;;;;;;;79.45;42.70;;;;;;;-0.86;100.00;99604.66;2088803;28;20234;-75
2022/03/06 00:07:42;;;;;;;68.97;41.03;;;;;;;-0.84;100.00;99601.81;2081722;28;20223;-75
2022/03/06 00:08:50;;;;;;;67.10;41.53;;;;;;;-0.86;100.00;99609.88;2081910;28;20187;-76
2022/03/06 00:09:55;;;;;;;72.38;40.65;;;;;;;-0.81;100.00;99613.69;2082304;28;20207;-76
2022/03/06 00:10:58;;;;;;;65.82;40.33;;;;;;;-0.83;100.00;99607.84;2082032;28;20211;-76
2022/03/06 00:12:00;;;;;;;71.03;41.67;;;;;;;-0.81;100.00;99605.81;2081821;28;20215;-76
2022/03/06 00:13:04;;;;;;;72.07;40.45;;;;;;;-0.81;100.00;99617.09;2081537;28;20211;-76
2022/03/06 00:14:11;;;;;;;71.82;40.63;;;;;;;-0.83;100.00;99613.91;2082057;28;20246;-76
2022/03/06 00:15:18;;;;;;;75.80;41.22;;;;;;;-0.84;100.00;99607.06;2082184;28;20552;-75
2022/03/06 00:16:25;;;;;;;72.70;40.67;;;;;;;-0.84;100.00;99611.50;2082206;28;20183;-76
2022/03/06 00:17:27;;;;;;;71.03;39.85;;;;;;;-0.85;100.00;99608.06;2081741;28;20244;-76
2022/03/06 00:18:31;;;;;;;71.97;40.73;;;;;;;-0.86;100.00;99609.09;2081532;28;20234;-76
2022/03/06 00:19:34;;;;;;;69.97;40.70;;;;;;;-0.80;100.00;99605.59;2082071;28;20435;-76
2022/03/06 00:20:43;;;;;;;70.65;41.47;;;;;;;-0.79;100.00;99615.06;2089666;28;20669;-76
2022/03/06 00:21:47;;;;;;;74.70;41.72;;;;;;;-0.82;100.00;99610.25;2088192;28;20256;-76
2022/03/06 00:22:54;;;;;;;68.60;40.83;;;;;;;-0.83;100.00;99610.47;2082066;28;20245;-76
2022/03/06 00:23:58;;;;;;;71.15;42.40;;;;;;;-0.82;100.00;99607.63;2081635;28;20690;-76
2022/03/06 00:25:01;;;;;;;70.70;40.88;;;;;;;-0.72;100.00;99608.00;2081506;28;20199;-76
2022/03/06 00:26:09;;;;;;;74.50;42.28;;;;;;;-0.77;100.00;99602.59;2082224;28;20195;-76
2022/03/06 00:27:12;;;;;;;80.25;41.28;;;;;;;-0.71;100.00;99608.78;2082053;28;20219;-76
2022/03/06 00:28:19;;;;;;;68.10;41.75;;;;;;;-0.72;100.00;99604.56;2082042;28;20274;-76
2022/03/06 00:29:26;;;;;;;73.22;40.72;;;;;;;-0.75;100.00;99597.13;2081601;28;20203;-76
2022/03/06 00:30:32;;;;;;;76.03;41.65;;;;;;;-0.57;100.00;99605.91;2081559;28;20578;-76
2022/03/06 00:31:35;;;;;;;70.50;39.70;;;;;;;-0.56;100.00;99598.84;2084234;28;20226;-76
2022/03/06 00:32:36;;;;;;;70.68;39.95;;;;;;;-0.63;100.00;99601.50;2081587;28;20191;-76
2022/03/06 00:33:44;;;;;;;73.90;42.42;;;;;;;-0.64;100.00;99599.09;2082155;28;20546;-76
2022/03/06 00:34:48;;;;;;;70.82;40.20;;;;;;;-0.61;100.00;99594.25;2084752;28;20187;-76
2022/03/06 00:35:58;;;;;;;71.22;40.30;;;;;;;-0.69;100.00;99599.72;2089524;28;20202;-76
2022/03/06 00:37:02;;;;;;;73.95;41.13;;;;;;;-0.76;100.00;99601.56;2083572;28;20686;-76
2022/03/06 00:38:06;;;;;;;65.50;39.00;;;;;;;-0.78;100.00;99601.00;2081698;28;20202;-76
2022/03/06 00:39:10;;;;;;;74.35;41.08;;;;;;;-0.80;100.00;99599.56;2090602;28;20191;-76
2022/03/06 00:40:15;;;;;;;68.13;41.13;;;;;;;-0.82;100.00;99599.78;2084600;28;20199;-76
2022/03/06 00:41:20;;;;;;;73.75;39.53;;;;;;;-0.85;100.00;99602.81;2075299;28;20200;-76
2022/03/06 00:42:29;;;;;;;75.22;41.35;;;;;;;-0.91;100.00;99595.78;2078006;28;20686;-76
2022/03/06 00:43:34;;;;;;;70.80;41.55;;;;;;;-0.86;100.00;99595.97;2075960;28;20200;-77
2022/03/06 00:44:40;;;;;;;74.03;41.10;;;;;;;-0.92;100.00;99597.59;2077563;28;20548;-76
2022/03/06 00:45:43;;;;;;;70.07;40.10;;;;;;;-0.94;100.00;99598.84;2083356;28;20202;-76
2022/03/06 00:46:46;;;;;;;68.30;39.88;;;;;;;-0.95;100.00;99600.66;2083725;28;20191;-77
2022/03/06 00:47:49;;;;;;;73.88;40.25;;;;;;;-0.94;100.00;99604.06;2093726;28;20268;-76
2022/03/06 00:48:52;;;;;;;72.95;40.33;;;;;;;-0.94;100.00;99607.50;2090434;28;20236;-76
2022/03/06 00:49:58;;;;;;;67.20;40.45;;;;;;;-0.97;100.00;99589.56;2085434;28;20225;-76
2022/03/06 00:51:02;;;;;;;65.22;38.45;;;;;;;-0.95;100.00;99607.72;2082647;28;20203;-76
2022/03/06 00:52:07;;;;;;;75.75;40.90;;;;;;;-0.98;100.00;99602.88;2083320;28;20231;-77
2022/03/06 00:53:11;;;;;;;67.47;39.70;;;;;;;-0.98;100.00;99597.63;2085255;28;20302;-76
2022/03/06 00:54:19;;;;;;;64.25;39.78;;;;;;;-0.97;100.00;99604.47;2083449;28;20636;-76
2022/03/06 00:55:27;;;;;;;70.03;40.25;;;;;;;-0.99;100.00;99599.44;2085999;28;20199;-76
2022/03/06 00:56:30;;;;;;;64.78;38.30;;;;;;;-0.98;100.00;99603.66;2082945;28;20227;-76
2022/03/06 00:57:38;;;;;;;78.70;40.15;;;;;;;-0.95;100.00;99607.72;2075750;28;20619;-76
2022/03/06 00:58:50;;;;;;;67.38;39.03;;;;;;;-0.98;100.00;99608.09;2077041;28;20298;-77
2022/03/06 00:59:56;;;;;;;63.13;37.50;;;;;;;-1.00;100.00;99607.50;2076676;28;20620;-76
2022/03/06 01:00:58;;;;;;;68.30;39.20;;;;;;;-0.99;100.00;99602.06;2085704;28;20203;-76
2022/03/06 01:02:01;;;;;;;67.75;40.00;;;;;;;-0.99;100.00;99604.69;2083231;28;20199;-77
2022/03/06 01:03:09;;;;;;;72.28;39.30;;;;;;;-1.01;100.00;99603.28;2085553;28;20184;-76
2022/03/06 01:04:18;;;;;;;74.97;40.28;;;;;;;-0.97;100.00;99604.47;2083158;28;20253;-76
2022/03/06 01:05:26;;;;;;;72.55;39.03;;;;;;;-0.98;100.00;99600.25;2083614;28;20641;-76
2022/03/06 01:06:31;;;;;;;62.05;37.42;;;;;;;-0.98;100.00;99600.25;2083630;28;20219;-76
2022/03/06 01:07:36;;;;;;;67.20;40.47;;;;;;;-0.95;100.00;99599.84;2075161;28;20235;-77
2022/03/06 01:08:39;;;;;;;69.50;39.42;;;;;;;-0.93;100.00;99592.59;2084913;28;20198;-76
2022/03/06 01:09:48;;;;;;;66.13;38.65;;;;;;;-0.91;100.00;99595.78;2083697;28;20658;-76
2022/03/06 01:10:58;;;;;;;66.13;39.80;;;;;;;-0.89;100.00;99591.16;2084140;28;20234;-76
2022/03/06 01:12:06;;;;;;;68.95;39.85;;;;;;;-0.89;100.00;99599.00;2075594;28;20294;-76
2022/03/06 01:13:12;;;;;;;67.75;39.55;;;;;;;-0.91;100.00;99598.41;2083107;28;20621;-76
2022/03/06 01:14:18;;;;;;;65.75;39.53;;;;;;;-0.90;100.00;99600.00;2085257;28;20184;-76
2022/03/06 01:15:22;;;;;;;68.63;39.45;;;;;;;-0.91;100.00;99598.41;2083496;28;20204;-76
2022/03/06 01:16:23;;;;;;;74.88;39.58;;;;;;;-0.93;100.00;99596.00;2085423;28;20615;-76
2022/03/06 01:17:32;;;;;;;67.38;38.42;;;;;;;-0.91;100.00;99599.22;2082845;28;20215;-76
2022/03/06 01:18:36;;;;;;;65.28;38.17;;;;;;;-0.87;100.00;99600.41;2083296;28;20668;-76
2022/03/06 01:19:47;;;;;;;68.32;40.10;;;;;;;-0.87;100.00;99591.72;2076768;28;20262;-76
2022/03/06 01:20:53;;;;;;;67.70;38.70;;;;;;;-0.90;100.00;99597.41;2082996;28;20560;-77
2022/03/06 01:21:59;;;;;;;71.10;39.78;;;;;;;-0.92;100.00;99596.81;2084719;28;20778;-76
2022/03/06 01:23:01;;;;;;;71.63;39.97;;;;;;;-0.95;100.00;99584.13;2083004;28;20196;-76
2022/03/06 01:24:09;;;;;;;78.43;40.45;;;;;;;-0.87;100.00;99586.50;2083474;28;20184;-76
2022/03/06 01:25:12;;;;;;;74.35;40.33;;;;;;;-0.86;100.00;99586.31;2083108;28;20211;-76
2022/03/06 01:26:19;;;;;;;67.03;39.67;;;;;;;-0.89;100.00;99585.91;2083237;28;20246;-76
2022/03/06 01:27:26;;;;;;;68.95;38.88;;;;;;;-0.91;100.00;99593.19;2082493;28;20739;-76
2022/03/06 01:28:32;;;;;;;71.40;40.92;;;;;;;-0.94;100.00;99588.34;2082570;28;20215;-76
2022/03/06 01:29:37;;;;;;;66.88;38.72;;;;;;;-0.96;100.00;99590.34;2083099;28;20207;-76
2022/03/06 01:30:40;;;;;;;69.85;39.75;;;;;;;-0.98;100.00;99587.94;2083062;28;20188;-76
2022/03/06 01:31:46;;;;;;;67.65;39.35;;;;;;;-0.99;100.00;99585.56;2083402;28;20654;-77
2022/03/06 01:32:52;;;;;;;63.17;38.90;;;;;;;-0.97;100.00;99588.75;2083456;28;20597;-76
2022/03/06 01:34:02;;;;;;;68.43;39.55;;;;;;;-0.96;100.00;99591.16;2083372;28;20232;-76
2022/03/06 01:35:12;;;;;;;69.55;40.17;;;;;;;-0.93;100.00;99590.78;2082627;28;20210;-76
2022/03/06 01:36:16;;;;;;;66.25;39.03;;;;;;;-0.94;100.00;99588.34;2082284;28;20261;-76
2022/03/06 01:37:19;;;;;;;65.85;38.45;;;;;;;-0.98;100.00;99595.00;2090924;28;20225;-76
2022/03/06 01:38:23;;;;;;;66.20;39.58;;;;;;;-0.99;100.00;99596.03;2090902;28;20281;-76
2022/03/06 01:39:31;;;;;;;66.65;38.58;;;;;;;-1.00;100.00;99592.59;2082612;28;20659;-76
2022/03/06 01:40:38;;;;;;;69.55;39.20;;;;;;;-0.91;100.00;99593.97;2075339;28;20259;-76
2022/03/06 01:41:47;;;;;;;74.50;40.28;;;;;;;-0.90;100.00;99594.78;2082646;28;20242;-76
2022/03/06 01:42:52;;;;;;;64.93;38.92;;;;;;;-0.92;100.00;99597.59;2082645;28;20318;-76
2022/03/06 01:43:57;;;;;;;70.05;39.67;;;;;;;-0.93;100.00;99596.00;2082590;28;20291;-76
2022/03/06 01:44:59;;;;;;;69.78;39.60;;;;;;;-0.96;100.00;99595.59;2082688;28;20653;-76
2022/03/06 01:46:02;;;;;;;67.22;39.97;;;;;;;-0.97;100.00;99591.38;2082544;28;20199;-76
2022/03/06 01:47:07;;;;;;;70.93;37.63;;;;;;;-0.97;100.00;99601.84;2082927;28;20203;-76
2022/03/06 01:48:18;;;;;;;75.85;40.40;;;;;;;-0.98;100.00;99601.03;2082412;28;20242;-76
2022/03/06 01:49:24;;;;;;;65.93;39.15;;;;;;;-0.99;100.00;99596.03;2076099;28;20645;-76
2022/03/06 01:50:30;;;;;;;66.43;39.88;;;;;;;-0.97;100.00;99596.63;2082340;28;20261;-76
2022/03/06 01:51:33;;;;;;;65.10;39.58;;;;;;;-0.97;100.00;99589.56;2082489;28;20233;-76
2022/03/06 01:52:39;;;;;;;72.88;41.00;;;;;;;-0.94;100.00;99596.22;2083228;28;20191;-77
2022/03/06 01:53:46;;;;;;;70.68;40.60;;;;;;;-0.95;100.00;99597.22;2082545;28;20192;-76
2022/03/06 01:54:52;;;;;;;70.13;39.33;;;;;;;-0.95;100.00;99597.22;2082688;28;20230;-77
2022/03/06 01:56:00;;;;;;;71.97;40.67;;;;;;;-0.92;100.00;99599.44;2082864;28;20199;-76
2022/03/06 01:57:03;;;;;;;71.07;40.28;;;;;;;-0.94;100.00;99594.41;2083061;28;20263;-76
2022/03/06 01:58:08;;;;;;;74.03;41.50;;;;;;;-0.96;100.00;99599.03;2083371;28;20198;-76
2022/03/06 01:59:09;;;;;;;71.03;40.60;;;;;;;-0.95;100.00;99595.41;2082601;28;20207;-76
2022/03/06 02:00:14;;;;;;;72.97;41.13;;;;;;;-0.92;100.00;99591.56;2082753;28;20183;-76
2022/03/06 02:01:21;;;;;;;68.85;40.38;;;;;;;-0.84;100.00;99598.38;2082311;28;20678;-76
2022/03/06 02:02:32;;;;;;;70.20;40.30;;;;;;;-0.80;100.00;99594.31;2082981;28;20657;-76
2022/03/06 02:03:37;;;;;;;68.20;39.85;;;;;;;-0.72;100.00;99597.50;2082398;28;20199;-76
2022/03/06 02:04:40;;;;;;;69.40;39.58;;;;;;;-0.73;100.00;99595.91;2083063;28;20176;-76
2022/03/06 02:05:46;;;;;;;69.18;39.90;;;;;;;-0.76;100.00;99588.47;2083164;28;20294;-77
2022/03/06 02:06:52;;;;;;;65.00;39.42;;;;;;;-0.76;100.00;99595.53;2082864;28;20219;-76
2022/03/06 02:07:56;;;;;;;70.50;40.88;;;;;;;-0.80;100.00;99603.00;2082966;28;20253;-76
2022/03/06 02:09:02;;;;;;;66.70;40.03;;;;;;;-0.84;100.00;99593.94;2082882;28;20188;-76
2022/03/06 02:10:07;;;;;;;67.40;40.35;;;;;;;-0.82;100.00;99588.50;2082549;28;20211;-76
2022/03/06 02:11:16;;;;;;;68.45;40.50;;;;;;;-0.85;100.00;99592.34;2082929;28;20202;-77
2022/03/06 02:12:24;;;;;;;69.22;40.67;;;;;;;-0.88;100.00;99596.16;2082396;28;20203;-77
2022/03/06 02:13:28;;;;;;;78.57;41.05;;;;;;;-0.90;100.00;99600.81;2082706;28;20623;-77
2022/03/06 02:14:37;;;;;;;66.82;40.00;;;;;;;-0.93;100.00;99593.38;2083019;28;20561;-76
2022/03/06 02:15:46;;;;;;;65.78;41.10;;;;;;;-0.94;100.00;99606.69;2082481;28;20200;-76
2022/03/06 02:16:50;;;;;;;68.50;41.97;;;;;;;-0.96;100.00;99600.84;2082929;28;20203;-76
2022/03/06 02:17:59;;;;;;;63.63;38.70;;;;;;;-0.99;100.00;99594.22;2090134;28;20682;-76
2022/03/06 02:19:01;;;;;;;67.18;38.75;;;;;;;-0.98;100.00;99597.63;2083014;28;20650;-76
2022/03/06 02:20:06;;;;;;;76.50;41.78;;;;;;;-0.94;100.00;99590.97;2082349;28;20203;-77
2022/03/06 02:21:13;;;;;;;72.07;40.63;;;;;;;-0.95;100.00;99597.22;2081937;28;20222;-77
2022/03/06 02:22:17;;;;;;;67.50;40.67;;;;;;;-0.95;100.00;99594.63;2083012;28;20168;-76
2022/03/06 02:23:27;;;;;;;69.78;40.45;;;;;;;-0.96;100.00;99591.16;2090489;28;20199;-76
2022/03/06 02:24:33;;;;;;;71.43;40.08;;;;;;;-0.95;100.00;99592.00;2089762;28;20177;-76
2022/03/06 02:25:42;;;;;;;72.53;41.97;;;;;;;-0.97;100.00;99588.75;2083079;28;20192;-76
2022/03/06 02:26:44;;;;;;;70.50;40.65;;;;;;;-0.97;100.00;99583.53;2082893;28;20605;-76
2022/03/06 02:27:47;;;;;;;72.50;39.70;;;;;;;-1.00;100.00;99578.72;2082416;28;20620;-76
2022/03/06 02:28:57;;;;;;;68.57;41.22;;;;;;;-0.93;100.00;99589.97;2082297;28;20740;-76
2022/03/06 02:30:06;;;;;;;63.92;39.25;;;;;;;-0.95;100.00;99587.56;2082163;28;20206;-76
2022/03/06 02:31:16;;;;;;;69.38;40.00;;;;;;;-0.95;100.00;99586.75;2082403;28;20192;-76
2022/03/06 02:32:22;;;;;;;69.43;40.22;;;;;;;-0.97;100.00;99583.53;2082515;28;20199;-76
2022/03/06 02:33:28;;;;;;;66.85;39.83;;;;;;;-0.97;100.00;99583.53;2082664;28;20264;-76
2022/03/06 02:34:29;;;;;;;73.32;41.17;;;;;;;-0.96;100.00;99582.50;2082875;28;20202;-76
2022/03/06 02:35:40;;;;;;;68.43;40.72;;;;;;;-0.95;100.00;99589.38;2082198;28;20253;-76
2022/03/06 02:36:47;;;;;;;66.55;39.72;;;;;;;-1.00;100.00;99579.50;2082121;28;20223;-76
2022/03/06 02:37:55;;;;;;;67.35;41.20;;;;;;;-1.02;100.00;99580.75;2082883;28;20278;-76
2022/03/06 02:39:02;;;;;;;65.90;40.53;;;;;;;-1.02;100.00;99580.75;2083070;28;20176;-76
2022/03/06 02:40:07;;;;;;;67.13;40.75;;;;;;;-1.03;100.00;99587.78;2082574;28;20640;-76
2022/03/06 02:41:11;;;;;;;65.97;39.75;;;;;;;-0.99;100.00;99580.31;2074503;28;20202;-76
2022/03/06 02:42:23;;;;;;;68.90;39.78;;;;;;;-0.99;100.00;99580.31;2073964;28;20231;-76
2022/03/06 02:43:29;;;;;;;67.07;40.67;;;;;;;-1.01;100.00;99583.16;2082334;28;20242;-76
2022/03/06 02:44:38;;;;;;;66.82;39.22;;;;;;;-1.02;100.00;99578.91;2082737;28;20188;-76
2022/03/06 02:45:46;;;;;;;69.70;40.67;;;;;;;-1.03;100.00;99579.13;2082336;28;20196;-76
2022/03/06 02:46:48;;;;;;;64.43;40.90;;;;;;;-1.06;100.00;99576.91;2082301;28;20214;-76
2022/03/06 02:47:53;;;;;;;70.57;40.90;;;;;;;-1.08;100.00;99576.31;2082681;28;20212;-76
2022/03/06 02:48:55;;;;;;;67.13;40.03;;;;;;;-1.08;100.00;99581.56;2082849;28;20214;-76
2022/03/06 02:50:02;;;;;;;70.85;42.08;;;;;;;-1.08;100.00;99573.69;2082298;28;20298;-76
2022/03/06 02:51:09;;;;;;;65.93;39.58;;;;;;;-1.06;100.00;99571.69;2081793;28;20599;-76
2022/03/06 02:52:14;;;;;;;65.50;40.65;;;;;;;-1.07;100.00;99570.06;2082329;28;20600;-76
2022/03/06 02:53:26;;;;;;;73.18;41.33;;;;;;;-1.04;100.00;99565.25;2082247;28;20184;-76
2022/03/06 02:54:33;;;;;;;68.47;39.67;;;;;;;-1.06;100.00;99569.84;2082291;28;20694;-76
2022/03/06 02:55:37;;;;;;;75.97;41.65;;;;;;;-1.07;100.00;99567.44;2082116;28;20626;-76
2022/03/06 02:56:40;;;;;;;68.57;40.05;;;;;;;-1.09;100.00;99575.53;2082928;28;20207;-76
2022/03/06 02:57:46;;;;;;;67.20;41.30;;;;;;;-1.09;100.00;99572.91;2082806;28;20184;-76
2022/03/06 02:58:52;;;;;;;68.07;40.13;;;;;;;-1.10;100.00;99567.88;2082232;28;20660;-76
2022/03/06 03:00:00;;;;;;;67.78;40.00;;;;;;;-1.06;100.00;99574.28;2082107;28;20188;-76
2022/03/06 03:01:04;;;;;;;67.82;40.33;;;;;;;-1.09;100.00;99567.66;2082591;28;20550;-76
2022/03/06 03:02:07;;;;;;;67.50;40.22;;;;;;;-1.08;100.00;99574.50;2082334;28;20199;-77
2022/03/06 03:03:09;;;;;;;65.95;39.33;;;;;;;-0.99;100.00;99572.47;2082051;28;20764;-76
2022/03/06 03:04:11;;;;;;;70.63;39.92;;;;;;;-1.01;100.00;99566.63;2082678;28;20202;-77
2022/03/06 03:05:19;;;;;;;64.72;39.83;;;;;;;-1.03;100.00;99573.91;2082725;28;20237;-76
2022/03/06 03:06:24;;;;;;;77.45;42.58;;;;;;;-1.05;100.00;99571.47;2082141;28;20310;-76
2022/03/06 03:07:35;;;;;;;70.53;40.78;;;;;;;-1.09;100.00;99570.28;2081760;28;20247;-76
2022/03/06 03:08:41;;;;;;;66.45;39.53;;;;;;;-1.12;100.00;99569.91;2082006;28;20215;-76
2022/03/06 03:09:44;;;;;;;65.05;39.22;;;;;;;-1.06;100.00;99574.28;2082721;28;20187;-76
2022/03/06 03:10:46;;;;;;;63.25;39.88;;;;;;;-1.02;100.00;99575.50;2081837;28;20239;-76
2022/03/06 03:11:52;;;;;;;72.63;40.60;;;;;;;-1.04;100.00;99567.03;2073834;28;20718;-76
2022/03/06 03:12:59;;;;;;;66.43;39.92;;;;;;;-1.05;100.00;99575.91;2074654;28;20200;-76
2022/03/06 03:14:02;;;;;;;70.00;40.92;;;;;;;-1.06;100.00;99569.84;2074771;28;20291;-76
2022/03/06 03:15:12;;;;;;;72.60;39.55;;;;;;;-1.00;100.00;99568.22;2073535;28;20204;-76
2022/03/06 03:16:15;;;;;;;66.30;39.40;;;;;;;-1.02;100.00;99570.25;2082314;28;20223;-76
2022/03/06 03:17:19;;;;;;;73.90;41.50;;;;;;;-1.06;100.00;99569.06;2082631;28;20190;-77
2022/03/06 03:18:22;;;;;;;66.65;39.88;;;;;;;-1.06;100.00;99571.69;2082157;28;20204;-76
2022/03/06 03:19:28;;;;;;;73.68;40.35;;;;;;;-1.05;100.00;99575.91;2081933;28;20191;-76
2022/03/06 03:20:34;;;;;;;70.75;40.15;;;;;;;-1.07;100.00;99572.69;2082512;28;20279;-76
2022/03/06 03:21:41;;;;;;;65.57;40.22;;;;;;;-1.10;100.00;99571.28;2082123;28;20250;-76
2022/03/06 03:22:52;;;;;;;66.88;39.60;;;;;;;-1.10;100.00;99575.72;2082368;28;20187;-77
2022/03/06 03:23:54;;;;;;;66.90;39.35;;;;;;;-1.12;100.00;99573.31;2081898;28;20225;-77
2022/03/06 03:25:00;;;;;;;65.10;41.00;;;;;;;-1.13;100.00;99579.53;2081963;28;20666;-77
2022/03/06 03:26:05;;;;;;;65.70;39.25;;;;;;;-1.13;100.00;99582.16;2082637;28;20534;-77
2022/03/06 03:27:11;;;;;;;65.78;40.25;;;;;;;-1.15;100.00;99571.91;2082090;28;20253;-76
2022/03/06 03:28:22;;;;;;;69.82;41.25;;;;;;;-1.16;100.00;99580.78;2081910;28;20646;-76
2022/03/06 03:29:28;;;;;;;68.13;39.60;;;;;;;-1.19;100.00;99572.53;2082109;28;20259;-77
2022/03/06 03:30:32;;;;;;;66.55;40.20;;;;;;;-1.19;100.00;99575.97;2082683;28;20234;-77
2022/03/06 03:31:33;;;;;;;73.25;40.92;;;;;;;-1.20;100.00;99576.97;2081674;28;20674;-77
2022/03/06 03:32:39;;;;;;;70.30;41.60;;;;;;;-1.21;100.00;99571.94;2082123;28;20206;-77
2022/03/06 03:33:42;;;;;;;66.53;40.28;;;;;;;-1.22;100.00;99576.34;2073965;28;20222;-77
2022/03/06 03:34:51;;;;;;;67.05;38.67;;;;;;;-1.24;100.00;99575.75;2081714;28;20195;-76
2022/03/06 03:35:57;;;;;;;66.80;38.25;;;;;;;-1.24;100.00;99580.19;2081595;28;20653;-76
2022/03/06 03:37:04;;;;;;;65.28;37.45;;;;;;;-1.25;100.00;99584.63;2081814;28;20650;-77
2022/03/06 03:38:08;;;;;;;69.28;40.28;;;;;;;-1.25;100.00;99578.59;2082662;28;20168;-77
2022/03/06 03:39:11;;;;;;;64.18;38.80;;;;;;;-1.24;100.00;99577.56;2082394;28;20191;-77
2022/03/06 03:40:17;;;;;;;65.95;39.28;;;;;;;-1.26;100.00;99577.78;2082076;28;20250;-77
2022/03/06 03:41:23;;;;;;;66.22;39.55;;;;;;;-1.27;100.00;99578.81;2081381;28;20208;-77
2022/03/06 03:42:33;;;;;;;60.83;38.13;;;;;;;-1.27;100.00;99581.41;2081960;28;20318;-77
2022/03/06 03:43:38;;;;;;;62.35;39.10;;;;;;;-1.28;100.00;99590.28;2082039;28;20222;-77
2022/03/06 03:44:41;;;;;;;61.35;37.30;;;;;;;-1.30;100.00;99576.59;2089833;28;20563;-76
2022/03/06 03:45:43;;;;;;;60.58;37.03;;;;;;;-1.30;100.00;99578.41;2090069;28;20199;-77
2022/03/06 03:46:46;;;;;;;56.10;36.95;;;;;;;-1.31;100.00;99577.59;2082409;28;20270;-77
2022/03/06 03:47:54;;;;;;;62.40;38.67;;;;;;;-1.28;100.00;99587.66;2082471;28;20770;-77
2022/03/06 03:49:00;;;;;;;59.38;37.20;;;;;;;-1.25;100.00;99583.81;2080280;28;20220;-77
2022/03/06 03:50:06;;;;;;;68.40;37.00;;;;;;;-1.22;100.00;99576.34;2081954;28;20195;-77
2022/03/06 03:51:13;;;;;;;62.03;37.28;;;;;;;-1.19;100.00;99575.97;2081925;28;20195;-77
2022/03/06 03:52:16;;;;;;;60.97;36.30;;;;;;;-1.20;100.00;99578.78;2089819;28;20225;-77
2022/03/06 03:53:18;;;;;;;59.30;36.90;;;;;;;-1.20;100.00;99579.59;2089866;28;20183;-77
2022/03/06 03:54:20;;;;;;;58.67;35.90;;;;;;;-1.21;100.00;99582.41;2082304;28;20546;-77
2022/03/06 03:55:26;;;;;;;55.50;36.53;;;;;;;-1.22;100.00;99581.59;2082168;28;20207;-77
2022/03/06 03:56:31;;;;;;;59.20;37.13;;;;;;;-1.27;100.00;99573.56;2081764;28;20196;-77
2022/03/06 03:57:35;;;;;;;63.67;38.28;;;;;;;-1.24;100.00;99583.63;2074259;28;20204;-77
2022/03/06 03:58:38;;;;;;;62.80;36.75;;;;;;;-1.25;100.00;99583.81;2081354;28;20211;-77
2022/03/06 03:59:43;;;;;;;56.53;36.25;;;;;;;-1.26;100.00;99580.41;2082372;28;20195;-77
2022/03/06 04:00:50;;;;;;;57.58;37.20;;;;;;;-1.29;100.00;99586.06;2081820;28;20199;-77
2022/03/06 04:02:01;;;;;;;56.28;36.10;;;;;;;-1.27;100.00;99584.03;2081897;28;20682;-77
2022/03/06 04:03:04;;;;;;;54.47;35.08;;;;;;;-1.27;100.00;99578.81;2081535;28;20219;-77
2022/03/06 04:04:11;;;;;;;53.47;33.22;;;;;;;-1.23;100.00;99582.59;2081655;28;20184;-77
2022/03/06 04:05:20;;;;;;;53.22;33.50;;;;;;;-1.20;100.00;99578.78;2081815;28;20207;-77
2022/03/06 04:06:24;;;;;;;54.92;33.70;;;;;;;-1.21;100.00;99578.00;2082102;28;20233;-77
2022/03/06 04:07:28;;;;;;;56.78;35.55;;;;;;;-1.23;100.00;99584.41;2089759;28;20198;-77
2022/03/06 04:08:33;;;;;;;61.40;36.17;;;;;;;-1.26;100.00;99580.41;2082147;28;20659;-77
2022/03/06 04:09:40;;;;;;;54.80;34.78;;;;;;;-1.27;100.00;99576.19;2082471;28;20230;-77
2022/03/06 04:10:48;;;;;;;47.72;33.28;;;;;;;-1.26;100.00;99585.66;2082105;28;20728;-77
2022/03/06 04:11:56;;;;;;;54.92;34.22;;;;;;;-1.23;100.00;99579.19;2081880;28;20214;-77
2022/03/06 04:13:02;;;;;;;51.22;33.30;;;;;;;-1.20;100.00;99579.59;2074557;28;20192;-77
2022/03/06 04:14:07;;;;;;;37.33;27.50;;;;;;;-1.17;100.00;99584.41;2073891;28;20304;-77
2022/03/06 04:15:09;;;;;;;33.20;26.48;;;;;;;-1.17;100.00;99584.41;2073472;28;20203;-77
2022/03/06 04:16:14;;;;;;;32.15;25.35;;;;;;;-1.18;100.00;99587.22;2081811;28;20706;-77
2022/03/06 04:17:22;;;;;;;41.17;29.23;;;;;;;-1.17;100.00;99579.16;2081274;28;20677;-77
2022/03/06 04:18:28;;;;;;;46.38;30.77;;;;;;;-1.05;100.00;99587.16;2074653;28;20287;-77
2022/03/06 04:19:37;;;;;;;51.33;32.80;;;;;;;-0.93;100.00;99582.91;2081676;28;20721;-77
2022/03/06 04:20:40;;;;;;;50.55;34.33;;;;;;;-0.98;100.00;99581.91;2081393;28;20294;-77
2022/03/06 04:21:42;;;;;;;56.45;34.88;;;;;;;-0.95;100.00;99581.53;2073527;28;20282;-77
2022/03/06 04:22:46;;;;;;;59.20;34.85;;;;;;;-0.87;100.00;99579.47;2073418;28;20659;-77
2022/03/06 04:23:57;;;;;;;54.25;35.22;;;;;;;-0.73;100.00;99595.09;2081681;28;20573;-77
2022/03/06 04:25:02;;;;;;;56.83;35.92;;;;;;;-0.73;100.00;99588.06;2082199;28;20196;-77
2022/03/06 04:26:10;;;;;;;58.33;37.05;;;;;;;-0.72;100.00;99594.09;2082072;28;20199;-77
2022/03/06 04:27:14;;;;;;;55.25;36.97;;;;;;;-0.79;100.00;99590.69;2081767;28;20324;-77
2022/03/06 04:28:16;;;;;;;64.50;37.75;;;;;;;-0.81;100.00;99588.28;2081837;28;20267;-77
2022/03/06 04:29:17;;;;;;;58.58;35.60;;;;;;;-0.93;100.00;99587.34;2081616;28;20222;-77
2022/03/06 04:30:25;;;;;;;66.77;37.77;;;;;;;-0.98;100.00;99592.41;2081646;28;20268;-77
2022/03/06 04:31:30;;;;;;;60.13;37.85;;;;;;;-1.07;100.00;99583.97;2082212;28;20176;-77
2022/03/06 04:32:38;;;;;;;64.38;36.75;;;;;;;-1.02;100.00;99591.22;2081457;28;20203;-77
2022/03/06 04:33:48;;;;;;;58.55;36.05;;;;;;;-1.00;100.00;99583.94;2081761;28;20649;-77
2022/03/06 04:34:53;;;;;;;57.53;36.75;;;;;;;-1.00;100.00;99591.81;2082115;28;20191;-77
2022/03/06 04:35:59;;;;;;;65.53;37.10;;;;;;;-1.04;100.00;99593.22;2081510;28;20628;-77
2022/03/06 04:37:02;;;;;;;57.90;36.75;;;;;;;-1.13;100.00;99582.16;2081783;28;20233;-77
2022/03/06 04:38:06;;;;;;;58.63;37.88;;;;;;;-1.15;100.00;99592.03;2081342;28;20208;-77
2022/03/06 04:39:17;;;;;;;59.67;39.03;;;;;;;-1.18;100.00;99587.22;2081400;28;20577;-77
2022/03/06 04:40:25;;;;;;;58.00;36.42;;;;;;;-1.19;100.00;99596.09;2082020;28;20199;-77
2022/03/06 04:41:29;;;;;;;60.60;38.17;;;;;;;-1.05;100.00;99589.78;2080853;28;20339;-77
2022/03/06 04:42:37;;;;;;;60.35;38.05;;;;;;;-1.03;100.00;99594.84;2081206;28;20254;-77
2022/03/06 04:43:41;;;;;;;58.13;37.25;;;;;;;-1.07;100.00;99594.44;2081700;28;20204;-77
2022/03/06 04:44:46;;;;;;;60.30;37.47;;;;;;;-1.13;100.00;99587.41;2081408;28;20222;-77
2022/03/06 04:45:55;;;;;;;57.28;36.47;;;;;;;-1.15;100.00;99590.22;2082266;28;20171;-77
2022/03/06 04:46:59;;;;;;;58.08;37.47;;;;;;;-1.19;100.00;99591.66;2082162;28;20245;-77
2022/03/06 04:48:03;;;;;;;58.13;36.22;;;;;;;-1.21;100.00;99593.69;2081206;28;20591;-77
2022/03/06 04:49:07;;;;;;;55.67;34.85;;;;;;;-1.23;100.00;99590.44;2080844;28;20208;-77
2022/03/06 04:50:10;;;;;;;57.35;35.47;;;;;;;-1.26;100.00;99590.06;2089469;28;20555;-77
2022/03/06 04:51:11;;;;;;;59.17;35.42;;;;;;;-1.22;100.00;99591.25;2088985;28;20561;-76
2022/03/06 04:52:15;;;;;;;59.97;35.93;;;;;;;-1.24;100.00;99598.53;2082009;28;20265;-76
2022/03/06 04:53:22;;;;;;;56.53;34.55;;;;;;;-1.24;100.00;99599.31;2081568;28;20238;-77
2022/03/06 04:54:33;;;;;;;60.40;36.15;;;;;;;-1.27;100.00;99594.50;2081664;28;20187;-77
2022/03/06 04:55:39;;;;;;;53.58;35.00;;;;;;;-1.28;100.00;99594.72;2081903;28;20223;-77
2022/03/06 04:56:44;;;;;;;58.60;35.28;;;;;;;-1.26;100.00;99595.31;2089438;28;20286;-77
2022/03/06 04:57:47;;;;;;;56.53;35.20;;;;;;;-1.23;100.00;99597.50;2081253;28;20223;-77